Bookmark and Share
Track history (hours):
 

Marine Star

Last reported at 2014-Apr-09 18:31 UTC. Time now 2014-Apr-24 14:08 UTC.
Position N 34°51' E 139°57'.
Warning: this ship's position is 14 days out of date.

Length 108 m; draft 7.7 m.

Type: Ship. MMSI: 355327000.

NotesDate/timePositionNaut miles runAvg speedWind from/ knotsBaromVisibWave heightAir tempDewpointWater temp
2014-Apr-09 18:31N 34°51' E 139°57'1111.0
2014-Apr-09 17:33N 34°57' E 140°08'1110.6
2014-Apr-09 16:33N 35°03' E 140°19'1210.2
2014-Apr-09 15:24N 35°09' E 140°31'9 9.5
2014-Apr-09 14:28N 35°15' E 140°38'910.1
2014-Apr-09 13:33N 35°23' E 140°44'2610.5
2014-Apr-09 11:05N 35°47' E 140°56'910.1
2014-Apr-09 10:11N 35°55' E 140°50'710.6
2014-Apr-09 09:33N 35°59' E 140°44'4 1.7
2014-Apr-09 07:07N 35°55' E 140°40'0 0.0
2014-Apr-09 06:07N 35°55' E 140°40'0 0.0
2014-Apr-09 03:25N 35°55' E 140°40'0 0.0
2014-Apr-09 00:07N 35°55' E 140°40'0 0.0
2014-Apr-08 22:28N 35°55' E 140°40'0 0.0
2014-Apr-08 21:28N 35°55' E 140°40'0 0.0
2014-Apr-08 20:31N 35°55' E 140°40'0 0.0
2014-Apr-08 19:28N 35°55' E 140°40'0 0.0
2014-Apr-08 18:31N 35°55' E 140°40'0 0.0
2014-Apr-08 16:19N 35°55' E 140°40'0 0.0
2014-Apr-08 15:31N 35°55' E 140°40'0 0.0
2014-Apr-08 14:28N 35°55' E 140°40'0 0.0
2014-Apr-08 13:25N 35°55' E 140°40'0 0.0
2014-Apr-08 12:31N 35°55' E 140°40'0 0.0
2014-Apr-08 11:28N 35°55' E 140°40'0 0.0
2014-Apr-08 09:31N 35°55' E 140°40'0 0.1
2014-Apr-08 08:28N 35°55' E 140°40'0 0.0
2014-Apr-08 07:16N 35°55' E 140°40'0 0.0
2014-Apr-08 06:07N 35°55' E 140°40'0 0.2
2014-Apr-08 05:33N 35°55' E 140°40'3 3.1
2014-Apr-08 04:33N 35°58' E 140°42'4 0.7
2014-Apr-07 23:23N 36°01' E 140°45'0 0.1
2014-Apr-07 22:20N 36°01' E 140°45'0 0.0
2014-Apr-07 21:23N 36°01' E 140°45'0 0.1
2014-Apr-07 20:29N 36°01' E 140°45'0 0.0
2014-Apr-07 19:32N 36°01' E 140°45'0 0.0
2014-Apr-07 17:29N 36°01' E 140°45'0 0.0
2014-Apr-07 14:11N 36°01' E 140°45'0 0.0
2014-Apr-07 13:32N 36°01' E 140°45'0 0.0
2014-Apr-07 12:29N 36°01' E 140°45'0 0.0
2014-Apr-07 11:32N 36°01' E 140°45'0 0.0
2014-Apr-07 09:11N 36°01' E 140°45'0 0.0
2014-Apr-07 07:26N 36°01' E 140°45'0 0.0
2014-Apr-07 06:11N 36°01' E 140°45'0 0.2
2014-Apr-07 05:27N 36°01' E 140°45'8 8.5
2014-Apr-07 04:31N 35°54' E 140°51'1111.3
2014-Apr-07 03:33N 35°44' E 140°57'1711.6
2014-Apr-07 02:05N 35°29' E 140°48'611.8
2014-Apr-07 01:33N 35°23' E 140°44'1311.7
2014-Apr-07 00:28N 35°12' E 140°36'1312.9
2014-Apr-06 23:29N 35°05' E 140°23'1112.4
2014-Apr-06 22:33N 34°59' E 140°11'1311.7
2014-Apr-06 21:25N 34°52' E 139°58'9 7.7
2014-Apr-06 20:18N 34°46' E 139°50'5 6.0
2014-Apr-06 19:27N 34°48' E 139°56'8 8.8
2014-Apr-06 18:32N 34°51' E 140°05'4 4.3
2014-Apr-06 17:33N 34°52' E 139°60'1211.7
2014-Apr-06 16:33N 34°53' E 139°46'1211.9
2014-Apr-06 15:33N 35°05' E 139°44'1212.1
2014-Apr-06 14:33N 35°17' E 139°45'1010.4
2014-Apr-06 13:33N 35°27' E 139°48'1211.8
2014-Apr-06 12:33N 35°34' E 139°60'0 0.4
2014-Apr-06 11:30N 35°34' E 140°00'0 0.1
2014-Apr-06 10:24N 35°34' E 140°00'0 0.0
2014-Apr-06 09:33N 35°34' E 140°00'0 0.0
2014-Apr-06 08:27N 35°34' E 140°00'0 0.2
2014-Apr-06 07:30N 35°34' E 140°00'0 0.0
2014-Apr-06 06:33N 35°34' E 140°00'0 0.0
2014-Apr-06 05:33N 35°34' E 140°00'0 0.1
2014-Apr-06 04:33N 35°34' E 140°00'0 0.0
2014-Apr-06 03:27N 35°34' E 140°00'0 0.1
2014-Apr-06 02:33N 35°34' E 140°00'0 0.0
2014-Apr-06 01:30N 35°34' E 140°00'0 0.0
2014-Apr-06 00:33N 35°34' E 140°00'0 0.1
2014-Apr-05 23:30N 35°34' E 140°00'0 0.1
2014-Apr-05 22:33N 35°34' E 140°00'0 0.0
2014-Apr-05 21:33N 35°34' E 140°00'0 0.0
2014-Apr-05 20:30N 35°34' E 140°00'0 0.1
2014-Apr-05 19:33N 35°34' E 140°00'0 0.0
2014-Apr-05 18:33N 35°34' E 140°00'0 0.0
2014-Apr-05 17:30N 35°34' E 140°00'0 0.0
2014-Apr-05 16:30N 35°34' E 140°00'0 0.1
2014-Apr-05 15:30N 35°34' E 140°00'0 0.0
2014-Apr-05 14:30N 35°34' E 140°00'0 0.0
2014-Apr-05 13:27N 35°34' E 140°00'0 0.1
2014-Apr-05 12:30N 35°34' E 140°00'0 0.0
2014-Apr-05 11:33N 35°34' E 140°00'0 0.1
2014-Apr-05 10:33N 35°34' E 140°00'0 0.0
2014-Apr-05 09:30N 35°34' E 140°00'0 0.0
2014-Apr-05 08:33N 35°34' E 140°00'0 0.1
2014-Apr-05 07:33N 35°34' E 140°00'0 0.1
2014-Apr-05 06:24N 35°34' E 140°00'0 0.0
2014-Apr-05 05:30N 35°34' E 140°00'0 0.0
2014-Apr-05 04:33N 35°34' E 140°00'0 0.0
2014-Apr-05 03:30N 35°34' E 140°00'0 0.0
2014-Apr-05 02:27N 35°34' E 140°00'0 0.0
2014-Apr-05 01:33N 35°34' E 140°00'0 0.0
2014-Apr-05 00:27N 35°34' E 140°00'0 0.1
2014-Apr-04 23:32N 35°34' E 140°00'0 0.0
2014-Apr-04 22:32N 35°34' E 140°00'0 0.0
2014-Apr-04 21:32N 35°34' E 140°00'0 0.0
2014-Apr-04 20:31N 35°34' E 140°00'0 0.0
2014-Apr-04 19:33N 35°34' E 140°00'0 0.0
2014-Apr-04 18:33N 35°34' E 140°00'0 0.0
2014-Apr-04 17:30N 35°34' E 140°00'0 0.0
2014-Apr-04 16:33N 35°34' E 140°00'0 0.0
2014-Apr-04 15:31N 35°34' E 140°00'0 0.0
2014-Apr-04 14:33N 35°34' E 140°00'0 0.0
2014-Apr-04 13:33N 35°34' E 140°00'0 0.0
2014-Apr-04 12:32N 35°34' E 140°00'0 0.0
2014-Apr-04 11:30N 35°34' E 140°00'0 0.0
2014-Apr-04 10:28N 35°34' E 140°00'0 0.1
2014-Apr-04 09:33N 35°34' E 140°00'0 0.1
2014-Apr-04 08:33N 35°34' E 140°00'0 0.0
2014-Apr-04 07:31N 35°34' E 140°00'0 0.0
2014-Apr-04 06:31N 35°34' E 140°00'0 0.0
2014-Apr-04 05:32N 35°34' E 140°00'0 0.0
2014-Apr-04 04:33N 35°34' E 140°00'0 0.0
2014-Apr-04 03:33N 35°34' E 140°00'0 0.0
2014-Apr-04 02:31N 35°34' E 140°00'0 0.0
2014-Apr-04 01:28N 35°34' E 140°00'0 0.0
2014-Apr-04 00:31N 35°34' E 140°00'0 0.1
2014-Apr-03 23:34N 35°34' E 140°00'0 0.0
2014-Apr-03 22:28N 35°34' E 140°00'0 0.1
2014-Apr-03 21:34N 35°34' E 140°00'0 0.1
2014-Apr-03 20:28N 35°34' E 140°00'0 0.1
2014-Apr-03 19:28N 35°34' E 140°00'0 0.0
2014-Apr-03 18:28N 35°34' E 140°00'0 0.0
2014-Apr-03 17:34N 35°34' E 140°00'0 0.0
2014-Apr-03 16:28N 35°34' E 140°00'0 0.0
2014-Apr-03 15:22N 35°34' E 140°00'0 0.0
2014-Apr-03 14:31N 35°34' E 140°00'0 0.0
2014-Apr-03 13:28N 35°34' E 140°00'2 1.9
2014-Apr-03 12:33N 35°33' E 139°59'1111.4
2014-Apr-03 11:34N 35°26' E 139°48'10 9.8
2014-Apr-03 10:34N 35°16' E 139°46'1110.9
2014-Apr-03 09:33N 35°05' E 139°44'1010.3
2014-Apr-03 08:33N 34°56' E 139°40'6 5.6
2014-Apr-03 07:31N 34°50' E 139°38'9 7.9
2014-Apr-03 06:21N 34°47' E 139°28'0 0.6
2014-Apr-03 05:33N 34°47' E 139°28'2 1.1
2014-Apr-03 04:09N 34°46' E 139°30'1 1.3
2014-Apr-03 03:32N 34°45' E 139°31'2 1.6
2014-Apr-03 02:33N 34°45' E 139°32'4 4.4
2014-Apr-03 01:33N 34°47' E 139°28'3 2.7
2014-Apr-03 00:25N 34°48' E 139°24'2 2.0
2014-Apr-02 23:31N 34°48' E 139°27'2 1.8
2014-Apr-02 22:33N 34°47' E 139°29'2 1.5
2014-Apr-02 21:31N 34°47' E 139°30'1 1.4
2014-Apr-02 20:33N 34°46' E 139°32'1 1.5
2014-Apr-02 19:33N 34°46' E 139°34'2 1.5
2014-Apr-02 18:33N 34°45' E 139°35'2 1.8
2014-Apr-02 17:26N 34°44' E 139°38'2 1.7
2014-Apr-02 16:26N 34°43' E 139°39'2 1.8
2014-Apr-02 15:24N 34°43' E 139°42'4 1.5
2014-Apr-02 12:30N 34°41' E 139°47'5 4.7
2014-Apr-02 11:24N 34°45' E 139°51'1110.5
2014-Apr-02 10:21N 34°53' E 140°00'5 6.6
2014-Apr-02 09:34N 34°56' E 140°05'1 1.5
2014-Apr-02 08:33N 34°55' E 140°07'2 1.5
2014-Apr-02 07:33N 34°54' E 140°08'2 1.7
2014-Apr-02 06:31N 34°53' E 140°10'4 4.2
2014-Apr-02 05:33N 34°57' E 140°08'3 2.6
2014-Apr-02 04:33N 34°59' E 140°06'1 1.2
2014-Apr-02 03:33N 34°58' E 140°07'1 1.0
2014-Apr-02 02:33N 34°57' E 140°08'1 1.0
2014-Apr-02 01:31N 34°56' E 140°08'1 0.9
2014-Apr-02 00:34N 34°56' E 140°09'1 0.8
2014-Apr-01 23:33N 34°55' E 140°10'1 0.8
2014-Apr-01 22:33N 34°55' E 140°11'1 1.0
2014-Apr-01 21:33N 34°54' E 140°12'1 1.0
2014-Apr-01 20:33N 34°54' E 140°13'1 0.9
2014-Apr-01 19:34N 34°54' E 140°14'5 5.1
2014-Apr-01 18:34N 34°56' E 140°09'1 1.0
2014-Apr-01 17:33N 34°57' E 140°08'1 1.3
2014-Apr-01 16:33N 34°56' E 140°08'1 1.0
2014-Apr-01 15:30N 34°55' E 140°09'1 1.0
2014-Apr-01 14:31N 34°54' E 140°09'4 3.9
2014-Apr-01 13:33N 34°53' E 140°05'10 9.2
2014-Apr-01 12:25N 34°47' E 139°54'6 6.5
2014-Apr-01 11:33N 34°51' E 139°50'4 4.3
2014-Apr-01 10:33N 34°53' E 139°45'1010.4
2014-Apr-01 09:34N 35°03' E 139°43'1212.0
2014-Apr-01 08:34N 35°15' E 139°46'1010.3
2014-Apr-01 07:34N 35°25' E 139°44'1212.0
2014-Apr-01 06:34N 35°32' E 139°56'4 3.4
2014-Apr-01 05:26N 35°34' E 140°00'0 0.1
2014-Apr-01 04:32N 35°34' E 140°00'0 0.0
2014-Apr-01 03:32N 35°34' E 140°00'0 0.0
2014-Apr-01 02:23N 35°34' E 140°00'0 0.0
2014-Apr-01 01:32N 35°34' E 140°00'0 0.0
2014-Apr-01 00:29N 35°34' E 140°00'0 0.1
2014-Mar-31 23:32N 35°34' E 140°00'0 0.0
2014-Mar-31 22:32N 35°34' E 140°00'0 0.0
2014-Mar-31 21:29N 35°34' E 140°00'0 0.0
2014-Mar-31 20:26N 35°34' E 140°00'0 0.1
2014-Mar-31 19:32N 35°34' E 140°00'0 0.0
2014-Mar-31 18:08N 35°34' E 140°00'0 0.0
2014-Mar-31 17:26N 35°34' E 140°00'0 0.0
2014-Mar-31 16:32N 35°34' E 140°00'0 0.0
2014-Mar-31 15:29N 35°34' E 140°00'0 0.0
2014-Mar-31 14:29N 35°34' E 140°00'0 0.0
2014-Mar-31 13:32N 35°34' E 140°00'0 0.0
2014-Mar-31 12:32N 35°34' E 140°00'0 0.0
2014-Mar-31 11:26N 35°34' E 140°00'0 0.0
2014-Mar-31 10:32N 35°34' E 140°00'0 0.0
2014-Mar-31 09:32N 35°34' E 140°00'5 4.7
2014-Mar-31 08:34N 35°36' E 140°05'1 0.7
2014-Mar-31 07:33N 35°37' E 140°05'0 0.0
2014-Mar-31 06:30N 35°37' E 140°05'0 0.0
2014-Mar-31 05:33N 35°37' E 140°05'0 0.0
2014-Mar-31 04:33N 35°37' E 140°05'0 0.0
2014-Mar-31 03:33N 35°37' E 140°05'0 0.0
2014-Mar-31 02:21N 35°37' E 140°05'0 0.0
2014-Mar-31 01:33N 35°37' E 140°05'0 0.0
2014-Mar-31 00:33N 35°37' E 140°05'0 0.0
2014-Mar-30 23:24N 35°37' E 140°05'1 0.7
2014-Mar-30 22:33N 35°36' E 140°05'4 3.5
2014-Mar-30 21:30N 35°35' E 140°01'0 0.0
2014-Mar-30 20:33N 35°35' E 140°01'0 0.0
2014-Mar-30 19:33N 35°35' E 140°01'  

Dump ship's entire track history

sailing weather and tide predictions

Marine Star — H3LY — position and weather